createdAt,value
2018-06-15T00:00:39.979Z,1019.02
2018-06-15T00:01:39.965Z,1018.97
2018-06-15T00:02:39.983Z,1019.01
2018-06-15T00:03:39.984Z,1019.01
2018-06-15T00:04:39.977Z,1019.01
2018-06-15T00:05:39.980Z,1019.02
2018-06-15T00:06:39.990Z,1019.01
2018-06-15T00:07:39.977Z,1019.05
2018-06-15T00:08:39.982Z,1019.05
2018-06-15T00:09:39.971Z,1019.04
2018-06-15T00:10:39.978Z,1019.02
2018-06-15T00:11:39.972Z,1019.03
2018-06-15T00:12:40.015Z,1019.05
2018-06-15T00:13:39.968Z,1019.04
2018-06-15T00:14:39.992Z,1019.05
2018-06-15T00:15:39.999Z,1019.11
2018-06-15T00:16:40.011Z,1019.12
2018-06-15T00:17:40.022Z,1019.09
2018-06-15T00:18:39.987Z,1019.07
2018-06-15T00:19:39.981Z,1019.13
2018-06-15T00:20:39.996Z,1019.12
2018-06-15T00:21:40.073Z,1019.12
2018-06-15T00:22:40.006Z,1019.15
2018-06-15T00:23:40.022Z,1019.17
2018-06-15T00:24:39.980Z,1019.13
2018-06-15T00:25:39.992Z,1019.14
2018-06-15T00:26:40.120Z,1019.17
2018-06-15T00:27:39.993Z,1019.2
2018-06-15T00:28:39.999Z,1019.18
2018-06-15T00:29:40.080Z,1019.2
2018-06-15T00:30:39.973Z,1019.15
2018-06-15T00:31:39.981Z,1019.17
2018-06-15T00:32:42.752Z,1019.17
2018-06-15T00:33:39.983Z,1019.21
2018-06-15T00:34:40.005Z,1019.17
2018-06-15T00:35:40.044Z,1019.14
2018-06-15T00:36:40.090Z,1019.15
2018-06-15T00:37:39.990Z,1019.14
2018-06-15T00:38:40.178Z,1019.14
2018-06-15T00:39:40.097Z,1019.13
2018-06-15T00:40:40.038Z,1019.18
2018-06-15T00:41:40.134Z,1019.1
2018-06-15T00:42:40.099Z,1019.07
2018-06-15T00:43:40.089Z,1019.07
2018-06-15T00:44:40.086Z,1019.05
2018-06-15T00:45:40.072Z,1019
2018-06-15T00:46:40.044Z,1019.04
2018-06-15T00:47:40.103Z,1018.95
2018-06-15T00:48:40.229Z,1018.98
2018-06-15T00:49:40.133Z,1018.95
2018-06-15T00:50:40.126Z,1018.99
2018-06-15T00:51:40.007Z,1018.97
2018-06-15T00:52:40.430Z,1018.96
2018-06-15T00:53:39.999Z,1018.96
2018-06-15T00:54:40.085Z,1018.89
2018-06-15T00:55:40.030Z,1018.91
2018-06-15T00:56:40.121Z,1018.91
2018-06-15T00:57:40.018Z,1018.84
2018-06-15T00:58:40.052Z,1018.83
2018-06-15T00:59:40.054Z,1018.81
2018-06-15T01:00:39.999Z,1018.83
2018-06-15T01:01:40.020Z,1018.85
2018-06-15T01:02:40.075Z,1018.79
2018-06-15T01:03:40.038Z,1018.77
2018-06-15T01:04:39.999Z,1018.78
2018-06-15T01:05:40.015Z,1018.78
2018-06-15T01:06:40.022Z,1018.75
2018-06-15T01:07:40.016Z,1018.8
2018-06-15T01:08:40.023Z,1018.79
2018-06-15T01:09:40.027Z,1018.76
2018-06-15T01:10:40.012Z,1018.8
2018-06-15T01:11:40.034Z,1018.8
2018-06-15T01:12:40.027Z,1018.76
2018-06-15T01:13:40.022Z,1018.76
2018-06-15T01:14:40.011Z,1018.77
2018-06-15T01:15:40.023Z,1018.76
2018-06-15T01:16:40.010Z,1018.76
2018-06-15T01:17:40.025Z,1018.76
2018-06-15T01:18:40.010Z,1018.79
2018-06-15T01:19:40.010Z,1018.74
2018-06-15T01:20:40.111Z,1018.76
2018-06-15T01:21:40.033Z,1018.79
2018-06-15T01:22:40.060Z,1018.77
2018-06-15T01:23:40.029Z,1018.74
2018-06-15T01:24:40.215Z,1018.71
2018-06-15T01:25:40.028Z,1018.71
2018-06-15T01:26:40.091Z,1018.7
2018-06-15T01:27:40.035Z,1018.7
2018-06-15T01:28:40.042Z,1018.67
2018-06-15T01:29:40.041Z,1018.67
2018-06-15T01:30:40.018Z,1018.69
2018-06-15T01:31:40.075Z,1018.69
2018-06-15T01:32:40.029Z,1018.68
2018-06-15T01:33:40.036Z,1018.67
2018-06-15T01:34:40.034Z,1018.72
2018-06-15T01:35:40.025Z,1018.7
2018-06-15T01:36:40.233Z,1018.7
2018-06-15T01:37:40.253Z,1018.76
2018-06-15T01:38:40.219Z,1018.77
2018-06-15T01:39:40.122Z,1018.77
2018-06-15T01:40:40.026Z,1018.79
2018-06-15T01:41:40.065Z,1018.7
2018-06-15T01:42:40.056Z,1018.75
2018-06-15T01:43:40.049Z,1018.75
2018-06-15T01:44:40.090Z,1018.75
2018-06-15T01:45:40.180Z,1018.74
2018-06-15T01:46:40.465Z,1018.7
2018-06-15T01:47:40.082Z,1018.7
2018-06-15T01:48:40.208Z,1018.65
2018-06-15T01:49:40.077Z,1018.67
2018-06-15T01:50:40.065Z,1018.65
2018-06-15T01:51:40.057Z,1018.6
2018-06-15T01:52:40.051Z,1018.62
2018-06-15T01:53:40.225Z,1018.61
2018-06-15T01:54:40.220Z,1018.61
2018-06-15T01:55:40.041Z,1018.6
2018-06-15T01:56:40.096Z,1018.55
2018-06-15T01:57:40.060Z,1018.57
2018-06-15T01:58:40.071Z,1018.55
2018-06-15T01:59:40.110Z,1018.55
2018-06-15T02:00:40.197Z,1018.49
2018-06-15T02:01:40.111Z,1018.59
2018-06-15T02:02:40.079Z,1018.57
2018-06-15T02:03:40.043Z,1018.6
2018-06-15T02:04:40.082Z,1018.53
2018-06-15T02:05:40.167Z,1018.55
2018-06-15T02:06:40.055Z,1018.54
2018-06-15T02:07:40.360Z,1018.58
2018-06-15T02:08:40.086Z,1018.59
2018-06-15T02:09:40.177Z,1018.62
2018-06-15T02:10:40.042Z,1018.58
2018-06-15T02:11:40.059Z,1018.62
2018-06-15T02:12:40.066Z,1018.58
2018-06-15T02:13:40.047Z,1018.6
2018-06-15T02:14:40.084Z,1018.61
2018-06-15T02:15:40.053Z,1018.58
2018-06-15T02:16:40.061Z,1018.56
2018-06-15T02:17:40.059Z,1018.55
2018-06-15T02:18:40.070Z,1018.58
2018-06-15T02:19:40.045Z,1018.6
2018-06-15T02:20:40.049Z,1018.57
2018-06-15T02:21:40.044Z,1018.6
2018-06-15T02:22:40.061Z,1018.6
2018-06-15T02:23:40.044Z,1018.57
2018-06-15T02:24:40.053Z,1018.58
2018-06-15T02:25:40.059Z,1018.56
2018-06-15T02:26:40.050Z,1018.54
2018-06-15T02:27:40.056Z,1018.56
2018-06-15T02:28:40.061Z,1018.57
2018-06-15T02:29:40.058Z,1018.53
2018-06-15T02:30:40.080Z,1018.56
2018-06-15T02:31:40.098Z,1018.51
2018-06-15T02:32:40.390Z,1018.5
2018-06-15T02:33:40.096Z,1018.55
2018-06-15T02:34:40.053Z,1018.59
2018-06-15T02:35:40.049Z,1018.6
2018-06-15T02:36:40.166Z,1018.61
2018-06-15T02:37:40.114Z,1018.61
2018-06-15T02:38:40.110Z,1018.61
2018-06-15T02:39:40.096Z,1018.57
2018-06-15T02:40:40.216Z,1018.59
2018-06-15T02:41:40.095Z,1018.59
2018-06-15T02:42:40.324Z,1018.58
2018-06-15T02:43:40.103Z,1018.55
2018-06-15T02:44:40.087Z,1018.62
2018-06-15T02:45:40.066Z,1018.6
2018-06-15T02:46:40.090Z,1018.63
2018-06-15T02:47:40.082Z,1018.6
2018-06-15T02:48:40.072Z,1018.62
2018-06-15T02:49:40.088Z,1018.64
2018-06-15T02:50:40.089Z,1018.66
2018-06-15T02:51:40.305Z,1018.68
2018-06-15T02:52:40.227Z,1018.69
2018-06-15T02:53:40.061Z,1018.7
2018-06-15T02:54:40.073Z,1018.76
2018-06-15T02:55:40.342Z,1018.77
2018-06-15T02:56:40.104Z,1018.76
2018-06-15T02:57:40.218Z,1018.73
2018-06-15T02:58:40.072Z,1018.78
2018-06-15T02:59:40.107Z,1018.77
2018-06-15T03:00:40.071Z,1018.78
2018-06-15T03:01:40.161Z,1018.71
2018-06-15T03:02:40.095Z,1018.78
2018-06-15T03:03:40.093Z,1018.81
2018-06-15T03:04:40.131Z,1018.81
2018-06-15T03:05:40.098Z,1018.84
2018-06-15T03:06:40.091Z,1018.87
2018-06-15T03:07:40.064Z,1018.85
2018-06-15T03:08:40.167Z,1018.89
2018-06-15T03:09:40.081Z,1018.91
2018-06-15T03:10:40.079Z,1018.95
2018-06-15T03:11:40.092Z,1018.92
2018-06-15T03:12:40.069Z,1018.94
2018-06-15T03:13:40.102Z,1018.92
2018-06-15T03:14:40.229Z,1018.94
2018-06-15T03:15:40.199Z,1018.93
2018-06-15T03:16:40.107Z,1018.95
2018-06-15T03:17:40.119Z,1018.98
2018-06-15T03:18:40.093Z,1018.92
2018-06-15T03:19:40.155Z,1018.96
2018-06-15T03:20:40.097Z,1018.91
2018-06-15T03:21:40.085Z,1018.91
2018-06-15T03:22:40.100Z,1018.91
2018-06-15T03:23:40.112Z,1018.92
2018-06-15T03:24:40.079Z,1018.93
2018-06-15T03:25:40.072Z,1018.95
2018-06-15T03:26:40.109Z,1018.96
2018-06-15T03:27:40.091Z,1018.98
2018-06-15T03:28:40.092Z,1019.01
2018-06-15T03:29:40.107Z,1019.03
2018-06-15T03:30:40.085Z,1018.99
2018-06-15T03:31:40.081Z,1018.99
2018-06-15T03:32:40.099Z,1018.99
2018-06-15T03:33:40.084Z,1018.97
2018-06-15T03:34:40.304Z,1018.95
2018-06-15T03:35:40.126Z,1018.97
2018-06-15T03:36:40.100Z,1018.97
2018-06-15T03:37:40.175Z,1018.98
2018-06-15T03:38:40.149Z,1018.96
2018-06-15T03:39:40.287Z,1018.94
2018-06-15T03:40:40.130Z,1018.95
2018-06-15T03:41:40.092Z,1018.93
2018-06-15T03:42:40.076Z,1018.95
2018-06-15T03:43:40.288Z,1018.97
2018-06-15T03:44:40.086Z,1018.95
2018-06-15T03:45:40.106Z,1018.97
2018-06-15T03:46:40.088Z,1018.98
2018-06-15T03:47:40.213Z,1018.97
2018-06-15T03:48:40.193Z,1018.96
2018-06-15T03:49:40.096Z,1018.98
2018-06-15T03:50:40.216Z,1018.98
2018-06-15T03:51:40.118Z,1018.94
2018-06-15T03:52:40.127Z,1019.01
2018-06-15T03:53:40.113Z,1018.99
2018-06-15T03:54:40.141Z,1019.01
2018-06-15T03:55:40.219Z,1018.98
2018-06-15T03:56:40.098Z,1019
2018-06-15T03:57:40.100Z,1018.99
2018-06-15T03:58:40.215Z,1018.99
2018-06-15T03:59:40.110Z,1019
2018-06-15T04:00:40.119Z,1019.03
2018-06-15T04:01:40.124Z,1018.98
2018-06-15T04:02:40.174Z,1019
2018-06-15T04:03:40.154Z,1019
2018-06-15T04:04:40.101Z,1019.01
2018-06-15T04:05:40.103Z,1018.96
2018-06-15T04:06:40.200Z,1019
2018-06-15T04:07:40.221Z,1019.01
2018-06-15T04:08:40.116Z,1018.98
2018-06-15T04:09:40.133Z,1018.99
2018-06-15T04:10:40.179Z,1018.95
2018-06-15T04:11:40.456Z,1018.96
2018-06-15T04:12:40.167Z,1018.96
2018-06-15T04:13:40.128Z,1018.91
2018-06-15T04:14:40.320Z,1018.95
2018-06-15T04:15:40.116Z,1018.9
2018-06-15T04:16:40.179Z,1018.92
2018-06-15T04:17:40.297Z,1018.92
2018-06-15T04:18:40.130Z,1018.95
2018-06-15T04:19:40.152Z,1018.96
2018-06-15T04:20:40.169Z,1018.96
2018-06-15T04:21:40.129Z,1018.97
2018-06-15T04:22:40.117Z,1018.95
2018-06-15T04:23:40.115Z,1018.96
2018-06-15T04:24:40.120Z,1018.98
2018-06-15T04:25:40.120Z,1018.97
2018-06-15T04:26:40.149Z,1018.98
2018-06-15T04:27:40.115Z,1018.96
2018-06-15T04:28:40.180Z,1018.94
2018-06-15T04:29:40.146Z,1018.93
2018-06-15T04:30:40.112Z,1018.94
2018-06-15T04:31:40.124Z,1018.89
2018-06-15T04:32:40.294Z,1018.93
2018-06-15T04:33:40.186Z,1018.93
2018-06-15T04:34:40.141Z,1018.93
2018-06-15T04:35:40.161Z,1018.98
2018-06-15T04:36:40.119Z,1018.9
2018-06-15T04:37:40.139Z,1018.93
2018-06-15T04:38:40.141Z,1018.95
2018-06-15T04:39:40.119Z,1018.96
2018-06-15T04:40:40.143Z,1018.99
2018-06-15T04:41:40.136Z,1018.97
2018-06-15T04:42:40.183Z,1018.99
2018-06-15T04:43:40.126Z,1018.98
2018-06-15T04:44:40.256Z,1018.99
2018-06-15T04:45:40.119Z,1018.99
2018-06-15T04:46:40.169Z,1018.96
2018-06-15T04:47:40.214Z,1018.94
2018-06-15T04:48:40.121Z,1018.91
2018-06-15T04:49:40.226Z,1018.94
2018-06-15T04:50:40.178Z,1018.95
2018-06-15T04:51:40.152Z,1018.97
2018-06-15T04:52:40.169Z,1018.94
2018-06-15T04:53:40.224Z,1018.94
2018-06-15T04:54:40.216Z,1018.93
2018-06-15T04:55:40.144Z,1018.96
2018-06-15T04:56:40.202Z,1018.96
2018-06-15T04:57:40.156Z,1018.99
2018-06-15T04:58:40.140Z,1018.97
2018-06-15T04:59:40.179Z,1018.95
2018-06-15T05:00:40.174Z,1018.94
2018-06-15T05:01:40.178Z,1018.95
2018-06-15T05:02:40.228Z,1018.93
2018-06-15T05:03:40.173Z,1018.91
2018-06-15T05:04:40.135Z,1018.88
2018-06-15T05:05:40.233Z,1018.89
2018-06-15T05:06:40.208Z,1018.82
2018-06-15T05:07:40.165Z,1018.85
2018-06-15T05:08:40.184Z,1018.86
2018-06-15T05:09:40.135Z,1018.86
2018-06-15T05:10:40.140Z,1018.84
2018-06-15T05:11:40.166Z,1018.89
2018-06-15T05:12:40.161Z,1018.89
2018-06-15T05:13:40.153Z,1018.87
2018-06-15T05:14:40.317Z,1018.91
2018-06-15T05:15:40.156Z,1018.9
2018-06-15T05:16:40.137Z,1018.89
2018-06-15T05:17:40.140Z,1018.89
2018-06-15T05:18:40.147Z,1018.91
2018-06-15T05:19:40.171Z,1018.92
2018-06-15T05:20:40.135Z,1018.89
2018-06-15T05:21:40.151Z,1018.93
2018-06-15T05:22:40.156Z,1018.89
2018-06-15T05:23:40.205Z,1018.89
2018-06-15T05:24:40.161Z,1018.88
2018-06-15T05:25:40.198Z,1018.92
2018-06-15T05:26:40.191Z,1018.91
2018-06-15T05:27:40.367Z,1018.94
2018-06-15T05:28:40.147Z,1018.99
2018-06-15T05:29:40.323Z,1018.98
2018-06-15T05:30:40.172Z,1018.94
2018-06-15T05:31:40.165Z,1018.95
2018-06-15T05:32:40.191Z,1018.98
2018-06-15T05:33:40.254Z,1018.94
2018-06-15T05:34:40.156Z,1018.93
2018-06-15T05:35:40.295Z,1018.96
2018-06-15T05:36:40.166Z,1018.95
2018-06-15T05:37:40.156Z,1018.96
2018-06-15T05:38:40.149Z,1018.95
2018-06-15T05:39:40.157Z,1018.98
2018-06-15T05:40:41.512Z,1019
2018-06-15T05:41:40.186Z,1019
2018-06-15T05:42:40.353Z,1018.98
2018-06-15T05:43:40.189Z,1019
2018-06-15T05:44:40.166Z,1019.01
2018-06-15T05:45:40.163Z,1019.02
2018-06-15T05:46:40.382Z,1019.04
2018-06-15T05:47:40.164Z,1018.97
2018-06-15T05:48:40.179Z,1019.03
2018-06-15T05:49:40.150Z,1019.01
2018-06-15T05:50:40.158Z,1019
2018-06-15T05:51:40.377Z,1019.01
2018-06-15T05:52:40.175Z,1019.01
2018-06-15T05:53:40.153Z,1018.99
2018-06-15T05:54:40.212Z,1018.98
2018-06-15T05:55:40.230Z,1018.99
2018-06-15T05:56:40.201Z,1019.01
2018-06-15T05:57:40.160Z,1019
2018-06-15T05:58:40.174Z,1019.01
2018-06-15T05:59:40.235Z,1018.99
2018-06-15T06:00:40.288Z,1019.02
2018-06-15T06:01:40.184Z,1019.05
2018-06-15T06:02:40.191Z,1019.03
2018-06-15T06:03:40.175Z,1019.05
2018-06-15T06:04:40.167Z,1019.06
2018-06-15T06:05:40.199Z,1019.09
2018-06-15T06:06:40.207Z,1019.12
2018-06-15T06:07:40.300Z,1019.13
2018-06-15T06:08:40.171Z,1019.12
2018-06-15T06:09:40.258Z,1019.13
2018-06-15T06:10:40.274Z,1019.15
2018-06-15T06:11:40.195Z,1019.17
2018-06-15T06:12:40.381Z,1019.17
2018-06-15T06:13:40.287Z,1019.2
2018-06-15T06:14:40.204Z,1019.23
2018-06-15T06:15:40.223Z,1019.2
2018-06-15T06:16:40.191Z,1019.22
2018-06-15T06:17:40.279Z,1019.18
2018-06-15T06:18:40.321Z,1019.18
2018-06-15T06:19:40.553Z,1019.19
2018-06-15T06:20:40.510Z,1019.23
2018-06-15T06:21:40.396Z,1019.24
2018-06-15T06:22:40.228Z,1019.22
2018-06-15T06:23:40.202Z,1019.24
2018-06-15T06:24:40.284Z,1019.24
2018-06-15T06:25:40.248Z,1019.2
2018-06-15T06:26:40.239Z,1019.27
2018-06-15T06:27:40.239Z,1019.31
2018-06-15T06:28:40.206Z,1019.31
2018-06-15T06:29:40.205Z,1019.31
2018-06-15T06:30:40.184Z,1019.3
2018-06-15T06:31:40.230Z,1019.3
2018-06-15T06:32:40.379Z,1019.35
2018-06-15T06:33:40.209Z,1019.34
2018-06-15T06:34:40.255Z,1019.37
2018-06-15T06:35:40.291Z,1019.35
2018-06-15T06:36:40.204Z,1019.38
2018-06-15T06:37:40.240Z,1019.34
2018-06-15T06:38:40.409Z,1019.32
2018-06-15T06:39:40.210Z,1019.32
2018-06-15T06:40:40.217Z,1019.29
2018-06-15T06:41:40.184Z,1019.31
2018-06-15T06:42:40.233Z,1019.37
2018-06-15T06:43:40.370Z,1019.35
2018-06-15T06:44:40.240Z,1019.35
2018-06-15T06:45:40.184Z,1019.35
2018-06-15T06:46:40.487Z,1019.38
2018-06-15T06:47:40.205Z,1019.35
2018-06-15T06:48:40.235Z,1019.35
2018-06-15T06:49:40.233Z,1019.34
2018-06-15T06:50:40.405Z,1019.37
2018-06-15T06:51:40.203Z,1019.35
2018-06-15T06:52:40.231Z,1019.34
2018-06-15T06:53:40.251Z,1019.35
2018-06-15T06:54:40.212Z,1019.33
2018-06-15T06:55:40.188Z,1019.39
2018-06-15T06:56:40.226Z,1019.35
2018-06-15T06:57:40.208Z,1019.37
2018-06-15T06:58:40.220Z,1019.38
2018-06-15T06:59:40.302Z,1019.36
2018-06-15T07:00:40.245Z,1019.38
2018-06-15T07:01:40.257Z,1019.35
2018-06-15T07:02:40.213Z,1019.38
2018-06-15T07:03:40.203Z,1019.38
2018-06-15T07:04:40.214Z,1019.39
2018-06-15T07:05:40.208Z,1019.35
2018-06-15T07:06:40.216Z,1019.37
2018-06-15T07:07:40.235Z,1019.4
2018-06-15T07:08:40.228Z,1019.41
2018-06-15T07:09:40.329Z,1019.43
2018-06-15T07:10:40.209Z,1019.45
2018-06-15T07:11:40.207Z,1019.42
2018-06-15T07:12:40.310Z,1019.43
2018-06-15T07:13:40.404Z,1019.4
2018-06-15T07:14:40.236Z,1019.44
2018-06-15T07:15:40.218Z,1019.44
2018-06-15T07:16:40.405Z,1019.38
2018-06-15T07:17:40.241Z,1019.41
2018-06-15T07:18:40.249Z,1019.37
2018-06-15T07:19:40.328Z,1019.4
2018-06-15T07:20:40.230Z,1019.42
2018-06-15T07:21:40.229Z,1019.41
2018-06-15T07:22:40.259Z,1019.42
2018-06-15T07:23:40.393Z,1019.47
2018-06-15T07:24:40.267Z,1019.45
2018-06-15T07:25:40.220Z,1019.46
2018-06-15T07:26:40.282Z,1019.42
2018-06-15T07:27:40.226Z,1019.42
2018-06-15T07:28:40.241Z,1019.49
2018-06-15T07:29:40.251Z,1019.44
2018-06-15T07:30:40.282Z,1019.46
2018-06-15T07:31:40.232Z,1019.46
2018-06-15T07:32:40.218Z,1019.5
2018-06-15T07:33:40.251Z,1019.5
2018-06-15T07:34:40.501Z,1019.47
2018-06-15T07:35:40.220Z,1019.45
2018-06-15T07:36:40.259Z,1019.45
2018-06-15T07:37:40.244Z,1019.47
2018-06-15T07:38:40.243Z,1019.47
2018-06-15T07:39:40.258Z,1019.47
2018-06-15T07:40:40.234Z,1019.44
2018-06-15T07:41:40.242Z,1019.42
2018-06-15T07:42:40.239Z,1019.49
2018-06-15T07:43:47.200Z,1019.42
2018-06-15T07:44:40.228Z,1019.4
2018-06-15T07:45:40.227Z,1019.4
2018-06-15T07:46:40.331Z,1019.44
2018-06-15T07:47:40.257Z,1019.38
2018-06-15T07:48:40.267Z,1019.4
2018-06-15T07:49:40.354Z,1019.44
2018-06-15T07:50:40.271Z,1019.44
2018-06-15T07:51:40.298Z,1019.42
2018-06-15T07:52:40.298Z,1019.48
2018-06-15T07:53:40.403Z,1019.45
2018-06-15T07:54:40.324Z,1019.45
2018-06-15T07:55:40.452Z,1019.42
2018-06-15T07:56:40.271Z,1019.43
2018-06-15T07:57:40.242Z,1019.4
2018-06-15T07:58:40.246Z,1019.44
2018-06-15T07:59:40.327Z,1019.43
2018-06-15T08:00:40.258Z,1019.41
2018-06-15T08:01:40.983Z,1019.4
2018-06-15T08:02:40.250Z,1019.37
2018-06-15T08:03:40.237Z,1019.36
2018-06-15T08:04:40.366Z,1019.38
2018-06-15T08:05:40.235Z,1019.35
2018-06-15T08:06:40.224Z,1019.34
2018-06-15T08:07:40.231Z,1019.36
2018-06-15T08:08:40.256Z,1019.31
2018-06-15T08:09:40.246Z,1019.28
2018-06-15T08:10:40.253Z,1019.31
2018-06-15T08:11:40.263Z,1019.27
2018-06-15T08:12:40.233Z,1019.33
2018-06-15T08:13:40.274Z,1019.29
2018-06-15T08:14:40.264Z,1019.28
2018-06-15T08:15:40.268Z,1019.28
2018-06-15T08:16:40.256Z,1019.28
2018-06-15T08:17:40.259Z,1019.24
2018-06-15T08:18:40.310Z,1019.24
2018-06-15T08:19:40.250Z,1019.23
2018-06-15T08:20:40.395Z,1019.22
2018-06-15T08:21:40.286Z,1019.21
2018-06-15T08:22:40.253Z,1019.25
2018-06-15T08:23:40.254Z,1019.21
2018-06-15T08:24:40.252Z,1019.22
2018-06-15T08:25:43.483Z,1019.22
2018-06-15T08:26:40.421Z,1019.27
2018-06-15T08:27:40.327Z,1019.25
2018-06-15T08:28:40.267Z,1019.22
2018-06-15T08:29:40.305Z,1019.21
2018-06-15T08:30:40.263Z,1019.2
2018-06-15T08:31:40.322Z,1019.22
2018-06-15T08:32:40.286Z,1019.19
2018-06-15T08:33:40.270Z,1019.22
2018-06-15T08:34:40.303Z,1019.23
2018-06-15T08:35:40.259Z,1019.23
2018-06-15T08:36:40.417Z,1019.21
2018-06-15T08:37:40.463Z,1019.19
2018-06-15T08:38:40.262Z,1019.22
2018-06-15T08:39:40.300Z,1019.15
2018-06-15T08:40:40.261Z,1019.18
2018-06-15T08:41:40.305Z,1019.17
2018-06-15T08:42:40.271Z,1019.14
2018-06-15T08:43:40.286Z,1019.1
2018-06-15T08:44:41.008Z,1019.05
2018-06-15T08:45:40.301Z,1019.07
2018-06-15T08:46:40.343Z,1019.07
2018-06-15T08:47:40.270Z,1019.09
2018-06-15T08:48:40.301Z,1019.08
2018-06-15T08:49:40.297Z,1019.06
2018-06-15T08:50:40.294Z,1019.07
2018-06-15T08:51:40.292Z,1019.03
2018-06-15T08:52:40.429Z,1019.05
2018-06-15T08:53:40.375Z,1019.04
2018-06-15T08:54:40.423Z,1019.03
2018-06-15T08:55:40.345Z,1019.05
2018-06-15T08:56:40.335Z,1019.02
2018-06-15T08:57:40.344Z,1019.05
2018-06-15T08:58:40.359Z,1019.01
2018-06-15T08:59:40.350Z,1019
2018-06-15T09:00:40.303Z,1018.99
2018-06-15T09:01:40.416Z,1018.98
2018-06-15T09:02:40.297Z,1019.01
2018-06-15T09:03:40.307Z,1019.01
2018-06-15T09:04:40.311Z,1018.96
2018-06-15T09:05:40.295Z,1018.94
2018-06-15T09:06:40.470Z,1018.95
2018-06-15T09:07:40.342Z,1018.91
2018-06-15T09:08:40.307Z,1018.9
2018-06-15T09:09:40.351Z,1018.92
2018-06-15T09:10:40.321Z,1018.86
2018-06-15T09:11:40.319Z,1018.91
2018-06-15T09:12:40.310Z,1018.88
2018-06-15T09:13:40.332Z,1018.87
2018-06-15T09:14:40.325Z,1018.88
2018-06-15T09:15:40.430Z,1018.86
2018-06-15T09:16:40.354Z,1018.86
2018-06-15T09:17:40.350Z,1018.89
2018-06-15T09:18:40.317Z,1018.88
2018-06-15T09:19:40.303Z,1018.89
2018-06-15T09:20:40.318Z,1018.9
2018-06-15T09:21:40.330Z,1018.91
2018-06-15T09:22:40.341Z,1018.93
2018-06-15T09:23:40.343Z,1018.9
2018-06-15T09:24:40.329Z,1018.9
2018-06-15T09:25:40.402Z,1018.88
2018-06-15T09:26:40.334Z,1018.91
2018-06-15T09:27:40.324Z,1018.91
2018-06-15T09:28:40.346Z,1018.92
2018-06-15T09:29:40.328Z,1018.89
2018-06-15T09:30:40.326Z,1018.93
2018-06-15T09:31:40.328Z,1018.93
2018-06-15T09:32:40.456Z,1018.94
2018-06-15T09:33:40.568Z,1018.9
2018-06-15T09:34:40.332Z,1018.95
2018-06-15T09:35:40.328Z,1018.93
2018-06-15T09:36:40.328Z,1018.95
2018-06-15T09:37:40.323Z,1018.93
2018-06-15T09:38:40.340Z,1018.94
2018-06-15T09:39:40.375Z,1018.91
2018-06-15T09:40:40.364Z,1018.92
2018-06-15T09:41:40.378Z,1018.93
2018-06-15T09:42:40.361Z,1018.9
2018-06-15T09:43:40.345Z,1018.93
2018-06-15T09:44:40.341Z,1018.94
2018-06-15T09:45:40.344Z,1018.96
2018-06-15T09:46:40.360Z,1018.96
2018-06-15T09:47:40.349Z,1018.92
2018-06-15T09:48:40.423Z,1018.91
2018-06-15T09:49:40.358Z,1018.97
2018-06-15T09:50:40.384Z,1018.87
2018-06-15T09:51:40.474Z,1018.89
2018-06-15T09:52:40.406Z,1018.89
2018-06-15T09:53:40.358Z,1018.87
2018-06-15T09:54:40.468Z,1018.87
2018-06-15T09:55:40.466Z,1018.88
2018-06-15T09:56:40.387Z,1018.86
2018-06-15T09:57:40.377Z,1018.79
2018-06-15T09:58:40.396Z,1018.86
2018-06-15T09:59:40.352Z,1018.83
2018-06-15T10:00:40.652Z,1018.82
2018-06-15T10:01:40.393Z,1018.83
2018-06-15T10:02:40.353Z,1018.86
2018-06-15T10:03:40.380Z,1018.81
2018-06-15T10:04:40.382Z,1018.85
2018-06-15T10:05:40.473Z,1018.84
2018-06-15T10:06:40.442Z,1018.83
2018-06-15T10:07:40.408Z,1018.87
2018-06-15T10:08:40.380Z,1018.82
2018-06-15T10:09:40.372Z,1018.88
2018-06-15T10:10:40.383Z,1018.87
2018-06-15T10:11:40.375Z,1018.85
2018-06-15T10:12:40.369Z,1018.86
2018-06-15T10:13:40.385Z,1018.87
2018-06-15T10:14:40.538Z,1018.84
2018-06-15T10:15:40.420Z,1018.87
2018-06-15T10:16:40.429Z,1018.88
2018-06-15T10:17:40.610Z,1018.88
2018-06-15T10:18:40.385Z,1018.86
2018-06-15T10:19:40.389Z,1018.87
2018-06-15T10:20:40.384Z,1018.85
2018-06-15T10:21:40.400Z,1018.88
2018-06-15T10:22:40.385Z,1018.9
2018-06-15T10:23:40.409Z,1018.92
2018-06-15T10:24:40.423Z,1018.88
2018-06-15T10:25:40.403Z,1018.9
2018-06-15T10:26:40.406Z,1018.92
2018-06-15T10:27:40.417Z,1018.85
2018-06-15T10:28:40.388Z,1018.87
2018-06-15T10:29:40.412Z,1018.89
2018-06-15T10:30:40.475Z,1018.91
2018-06-15T10:31:40.404Z,1018.94
2018-06-15T10:32:40.658Z,1018.92
2018-06-15T10:33:40.412Z,1018.86
2018-06-15T10:34:40.396Z,1018.86
2018-06-15T10:35:40.412Z,1018.89
2018-06-15T10:36:40.421Z,1018.88
2018-06-15T10:37:40.439Z,1018.9
2018-06-15T10:38:41.282Z,1018.85
2018-06-15T10:39:41.569Z,1018.86
2018-06-15T10:40:40.425Z,1018.86
2018-06-15T10:41:40.441Z,1018.86
2018-06-15T10:42:40.441Z,1018.87
2018-06-15T10:43:40.553Z,1018.89
2018-06-15T10:44:40.637Z,1018.89
2018-06-15T10:45:40.580Z,1018.91
2018-06-15T10:46:40.381Z,1018.88
2018-06-15T10:47:40.515Z,1018.87
2018-06-15T10:48:40.418Z,1018.9
2018-06-15T10:49:40.430Z,1018.94
2018-06-15T10:50:40.479Z,1018.89
2018-06-15T10:51:40.739Z,1018.88
2018-06-15T10:52:40.429Z,1018.85
2018-06-15T10:53:40.562Z,1018.85
2018-06-15T10:54:40.409Z,1018.81
2018-06-15T10:55:40.419Z,1018.8
2018-06-15T10:56:40.456Z,1018.8
2018-06-15T10:57:40.497Z,1018.84
2018-06-15T10:58:40.846Z,1018.79
2018-06-15T10:59:41.297Z,1018.8
2018-06-15T11:00:41.219Z,1018.79
2018-06-15T11:01:41.429Z,1018.8
2018-06-15T11:02:41.440Z,1018.79
2018-06-15T11:03:41.177Z,1018.74
2018-06-15T11:04:41.144Z,1018.78
2018-06-15T11:05:41.223Z,1018.76
2018-06-15T11:06:41.192Z,1018.79
2018-06-15T11:07:41.165Z,1018.79
2018-06-15T11:08:41.323Z,1018.79
2018-06-15T11:09:41.316Z,1018.82
2018-06-15T11:10:41.732Z,1018.87
2018-06-15T11:11:41.283Z,1018.79
2018-06-15T11:12:41.537Z,1018.78
2018-06-15T11:13:41.843Z,1018.82
2018-06-15T11:14:41.112Z,1018.75
2018-06-15T11:15:41.432Z,1018.74
2018-06-15T11:16:41.571Z,1018.71
2018-06-15T11:17:41.082Z,1018.75
2018-06-15T11:18:40.623Z,1018.76
2018-06-15T11:19:40.449Z,1018.73
2018-06-15T11:20:40.537Z,1018.7
2018-06-15T11:21:40.483Z,1018.69
2018-06-15T11:22:40.561Z,1018.69
2018-06-15T11:23:40.631Z,1018.72
2018-06-15T11:24:40.536Z,1018.67
2018-06-15T11:25:40.542Z,1018.71
2018-06-15T11:26:40.637Z,1018.68
2018-06-15T11:27:40.504Z,1018.68
2018-06-15T11:28:40.451Z,1018.68
2018-06-15T11:29:40.494Z,1018.66
2018-06-15T11:30:40.461Z,1018.65
2018-06-15T11:31:40.486Z,1018.66
2018-06-15T11:32:40.476Z,1018.64
2018-06-15T11:33:40.481Z,1018.64
2018-06-15T11:34:40.483Z,1018.63
2018-06-15T11:35:40.473Z,1018.63
2018-06-15T11:36:40.466Z,1018.67
2018-06-15T11:37:40.510Z,1018.63
2018-06-15T11:38:40.483Z,1018.61
2018-06-15T11:39:40.482Z,1018.65
2018-06-15T11:40:40.479Z,1018.63
2018-06-15T11:41:40.503Z,1018.63
2018-06-15T11:42:40.493Z,1018.64
2018-06-15T11:43:40.465Z,1018.62
2018-06-15T11:44:40.496Z,1018.61
2018-06-15T11:45:40.506Z,1018.57
2018-06-15T11:46:40.478Z,1018.62
2018-06-15T11:47:40.487Z,1018.65
2018-06-15T11:48:40.497Z,1018.67
2018-06-15T11:49:40.493Z,1018.7
2018-06-15T11:50:40.542Z,1018.66
2018-06-15T11:51:40.556Z,1018.66
2018-06-15T11:52:40.505Z,1018.69
2018-06-15T11:53:40.517Z,1018.66
2018-06-15T11:54:40.563Z,1018.65
2018-06-15T11:55:40.526Z,1018.69
2018-06-15T11:56:40.646Z,1018.67
2018-06-15T11:57:40.623Z,1018.72
2018-06-15T11:58:40.527Z,1018.69
2018-06-15T11:59:40.690Z,1018.69
2018-06-15T12:00:40.493Z,1018.68
2018-06-15T12:01:40.600Z,1018.61
2018-06-15T12:02:40.641Z,1018.62
2018-06-15T12:03:40.601Z,1018.63
2018-06-15T12:04:40.679Z,1018.59
2018-06-15T12:05:40.502Z,1018.62
2018-06-15T12:06:40.500Z,1018.58
2018-06-15T12:07:40.688Z,1018.58
2018-06-15T12:08:40.521Z,1018.59